West Des Moines, Iowa
Current Conditions -  °F | °C
As of 7:54 AM on Thursday 29 Jan 2015 (Local Time) from KDSM Reporting Station
Drizzle Drizzle  
Wind Chill: 24°   Ceiling: 1300
Heat Index: 35°   Visibility: 9mi
Dew Point: 30°   Wind: 20mph
Humidity: 82%   Direction: 340°NNW
Pressure: 30.14"   Gusts: 29mph
Location:  41.57°N, 93.76°W
Report Text: KDSM 291354Z 34017G25KT 9SM -DZ OVC013 02/M01 A3014 RMK AO2 PK WND 36030/1344 SLP214 P0000 T00171011
Loading
Personal Weather Stations






























Interactive Weather Map New forecast layout! Learn more

10-Day Weather Forecast

Advertisements
Track Severe Weather on mobile